Portada
METAR-TAF:

METAR-TAF

Aeropuertos :

Aeropuerto Internacional de Zvartnots

Ereván, Armenia

latitud: 40-08-50N, longitud: 044-23-45E, altitud: 865 m

Observación

El informe se hizo hace 49 minutos, a las 23:30 UTC
Viento 4 kt del norte-noreste
Temperatura -8°C
Humedad 73%
Presión 1026 hPa
Visibilidad 10 km o más

METAR: UDYZ 242330Z 03004KT 9999 NSC M08/M12 Q1026 R09/010070 NOSIG

Hora: 04:19 (00:19 UTC)

Pronóstico

El informe se hizo hace 1 hora y 17 minutos, a las 23:02 UTC
Pronóstico válido del 25 a las 00 UTC al 25 a las 24 UTC
Viento 6 kt con dirección variable
Visibilidad 10 km o más

TAF: UDYZ 242302Z 2500/2524 VRB06KT 9999 NSC

Observaciones y pronósticos meteorológicos de más de 4000 aeropuertos (mensajes METAR y TAF).

Los puntos amarillos y rojos representan las estaciones disponibles.

Ponga el ratón en el punto deseado para ver el nombre de la estación.

Haga clic para ver las observaciones y los pronósticos meteorológicos.

Para cambiar el mapa : haga clic en los botones verdes con una cruz de color negro para hacer un zoom, en el botón verde con un guión para alejar o en las flechas verdes para mapas adyacentes.


METAR-TAF: